Time;durP1;ratioP1;P1;durP2;ratioP2;P2;SDS_P1;SDS_P2;PMS_P1;PMS_P2;Temp;Humidity;BMP_temperature;BMP_pressure;BME280_temperature;BME280_humidity;BME280_pressure;Samples;Min_cycle;Max_cycle;Signal;HPM_P1;HPM_P2
2023/03/28 07:12:01;;;;;;;0.55;0.55;;;;;;;;;;5078364;28;20058;-74
2023/03/28 07:14:26;;;;;;;0.15;0.15;;;;;;;;;;5085483;28;20035;-74
2023/03/28 07:16:52;;;;;;;0.10;0.10;;;;;;;;;;5075761;28;20028;-73
2023/03/28 07:19:17;;;;;;;0.10;0.10;;;;;;;;;;5075574;28;20493;-74
2023/03/28 07:21:45;;;;;;;0.10;0.10;;;;;;;;;;5070978;28;20032;-74
2023/03/28 07:24:11;;;;;;;0.10;0.10;;;;;;;;;;5070924;28;20387;-74
2023/03/28 07:26:52;;;;;;;0.15;0.15;;;;;;;;;;5070833;28;20442;-73
2023/03/28 07:29:17;;;;;;;0.82;0.38;;;;;;;;;;5088097;28;20032;-74
2023/03/28 07:31:42;;;;;;;0.10;0.10;;;;;;;;;;5069910;28;20126;-74
2023/03/28 07:34:08;;;;;;;0.90;0.90;;;;;;;;;;5070558;28;20215;-73
2023/03/28 07:36:34;;;;;;;0.10;0.10;;;;;;;;;;5070390;28;20451;-73
2023/03/28 07:39:09;;;;;;;0.10;0.10;;;;;;;;;;5070477;28;20024;-73
2023/03/28 07:41:35;;;;;;;0.10;0.10;;;;;;;;;;5070667;28;20035;-73
2023/03/28 07:44:00;;;;;;;0.10;0.10;;;;;;;;;;5053758;28;20032;-74
2023/03/28 07:46:26;;;;;;;2.20;2.08;;;;;;;;;;5088460;28;20523;-74
2023/03/28 07:48:53;;;;;;;0.10;0.10;;;;;;;;;;5087406;28;20039;-74
2023/03/28 07:51:18;;;;;;;0.10;0.10;;;;;;;;;;5087037;28;20475;-73
2023/03/28 07:53:44;;;;;;;0.10;0.10;;;;;;;;;;5086924;28;20153;-73
2023/03/28 07:56:10;;;;;;;0.10;0.10;;;;;;;;;;5081439;28;20093;-74
2023/03/28 07:59:14;;;;;;;0.10;0.10;;;;;;;;;;5005027;28;20382;-74
2023/03/28 08:01:43;;;;;;;0.10;0.10;;;;;;;;;;5015413;28;20034;-74
2023/03/28 08:04:10;;;;;;;0.15;0.15;;;;;;;;;;5029029;28;20101;-74
2023/03/28 08:07:08;;;;;;;0.20;0.20;;;;;;;;;;5031226;28;20051;-75
2023/03/28 08:09:36;;;;;;;0.20;0.20;;;;;;;;;;5063021;28;20020;-74
2023/03/28 08:12:17;;;;;;;0.10;0.10;;;;;;;;;;5069947;28;20040;-74
2023/03/28 08:14:43;;;;;;;0.10;0.10;;;;;;;;;;5064224;28;20060;-74
2023/03/28 08:17:09;;;;;;;0.10;0.10;;;;;;;;;;5062813;28;20070;-74
2023/03/28 08:19:35;;;;;;;0.28;0.28;;;;;;;;;;5070004;28;20028;-74
2023/03/28 08:22:21;;;;;;;0.10;0.10;;;;;;;;;;5073832;28;20040;-73
2023/03/28 08:24:56;;;;;;;0.10;0.10;;;;;;;;;;5069797;28;20051;-74
2023/03/28 08:27:23;;;;;;;0.10;0.10;;;;;;;;;;5069726;28;20047;-73
2023/03/28 08:29:52;;;;;;;0.20;0.20;;;;;;;;;;5068755;28;20035;-73
2023/03/28 08:32:18;;;;;;;0.17;0.17;;;;;;;;;;5085066;28;20032;-72
2023/03/28 08:34:43;;;;;;;0.10;0.10;;;;;;;;;;5069560;28;20039;-74
2023/03/28 08:37:13;;;;;;;0.10;0.10;;;;;;;;;;5087439;28;20061;-73
2023/03/28 08:39:41;;;;;;;0.20;0.20;;;;;;;;;;5069325;28;20028;-74
2023/03/28 08:42:08;;;;;;;0.10;0.10;;;;;;;;;;5069723;28;20123;-73
2023/03/28 08:44:44;;;;;;;0.10;0.10;;;;;;;;;;5071911;28;20759;-74
2023/03/28 08:47:24;;;;;;;0.10;0.10;;;;;;;;;;5086248;28;20060;-74
2023/03/28 08:49:54;;;;;;;0.20;0.20;;;;;;;;;;5086725;28;20032;-74
2023/03/28 08:52:20;;;;;;;0.10;0.10;;;;;;;;;;5086291;28;20036;-74
2023/03/28 08:54:51;;;;;;;0.20;0.20;;;;;;;;;;5069209;28;20034;-74
2023/03/28 08:57:22;;;;;;;0.20;0.20;;;;;;;;;;5085948;28;20043;-74
2023/03/28 08:59:52;;;;;;;0.20;0.20;;;;;;;;;;5087093;28;20047;-74
2023/03/28 09:02:19;;;;;;;0.10;0.10;;;;;;;;;;5086088;28;20050;-74
2023/03/28 09:04:46;;;;;;;0.20;0.20;;;;;;;;;;5086262;28;20106;-74
2023/03/28 09:07:33;;;;;;;0.17;0.17;;;;;;;;;;5086176;28;20032;-74
2023/03/28 09:10:06;;;;;;;0.17;0.17;;;;;;;;;;5088618;28;20802;-73
2023/03/28 09:13:04;;;;;;;0.20;0.20;;;;;;;;;;5066863;28;20141;-73
2023/03/28 09:15:29;;;;;;;0.22;0.22;;;;;;;;;;5049279;28;20036;-73
2023/03/28 09:18:14;;;;;;;0.15;0.15;;;;;;;;;;5090556;28;20043;-74
2023/03/28 09:20:43;;;;;;;0.20;0.20;;;;;;;;;;5072595;28;20522;-74
2023/03/28 09:23:31;;;;;;;0.20;0.20;;;;;;;;;;5082460;28;20036;-74
2023/03/28 09:26:17;;;;;;;0.10;0.10;;;;;;;;;;5090810;28;20043;-74
2023/03/28 09:28:50;;;;;;;0.20;0.20;;;;;;;;;;5072681;28;20032;-74
2023/03/28 09:31:17;;;;;;;0.30;0.30;;;;;;;;;;5055869;28;20395;-74
2023/03/28 09:33:45;;;;;;;0.73;0.40;;;;;;;;;;5072359;28;20040;-74
2023/03/28 09:36:19;;;;;;;0.68;0.60;;;;;;;;;;5072234;28;20395;-74
2023/03/28 09:38:49;;;;;;;0.45;0.40;;;;;;;;;;5068006;28;20127;-74
2023/03/28 09:41:26;;;;;;;0.20;0.20;;;;;;;;;;5044639;28;20040;-74
2023/03/28 09:44:13;;;;;;;0.10;0.10;;;;;;;;;;5057725;28;20047;-73
2023/03/28 09:46:41;;;;;;;0.10;0.10;;;;;;;;;;5090667;28;20815;-73
2023/03/28 09:49:25;;;;;;;0.13;0.13;;;;;;;;;;5090254;28;20081;-72
2023/03/28 09:51:54;;;;;;;;;;;;;;;;;;5072445;28;20399;-73
2023/03/28 09:54:31;;;;;;;0.13;0.13;;;;;;;;;;5071976;28;19916;-74
2023/03/28 09:56:59;;;;;;;0.10;0.10;;;;;;;;;;5072461;28;20411;-73
2023/03/28 09:59:45;;;;;;;0.10;0.10;;;;;;;;;;5073695;28;20048;-74
2023/03/28 10:02:27;;;;;;;0.10;0.10;;;;;;;;;;5070979;28;20042;-75
2023/03/28 10:04:54;;;;;;;0.20;0.20;;;;;;;;;;5071886;28;20089;-73
2023/03/28 10:07:32;;;;;;;0.20;0.20;;;;;;;;;;5087347;28;20029;-73
2023/03/28 10:10:24;;;;;;;0.20;0.20;;;;;;;;;;5085310;28;20046;-73
2023/03/28 10:13:12;;;;;;;0.20;0.20;;;;;;;;;;5074889;28;20044;-74
2023/03/28 10:15:40;;;;;;;0.20;0.20;;;;;;;;;;5048759;28;20098;-74
2023/03/28 10:18:19;;;;;;;0.20;0.20;;;;;;;;;;5079975;28;20399;-73
2023/03/28 10:20:50;;;;;;;0.20;0.20;;;;;;;;;;5051743;28;20040;-73
2023/03/28 10:23:15;;;;;;;0.10;0.10;;;;;;;;;;5062289;28;20039;-74
2023/03/28 10:25:44;;;;;;;0.10;0.10;;;;;;;;;;5052461;28;20032;-73
2023/03/28 10:28:15;;;;;;;0.17;0.17;;;;;;;;;;5086535;28;20315;-73
2023/03/28 10:30:41;;;;;;;0.20;0.20;;;;;;;;;;5087884;28;20437;-73
2023/03/28 10:33:16;;;;;;;0.77;0.17;;;;;;;;;;5056057;28;20031;-73
2023/03/28 10:36:05;;;;;;;0.28;0.28;;;;;;;;;;5069249;28;20055;-73
2023/03/28 10:38:34;;;;;;;0.20;0.20;;;;;;;;;;5053997;28;20032;-73
2023/03/28 10:41:23;;;;;;;0.22;0.22;;;;;;;;;;5080476;28;20034;-73
2023/03/28 10:44:14;;;;;;;0.20;0.20;;;;;;;;;;5089196;28;20336;-73
2023/03/28 10:46:45;;;;;;;0.20;0.20;;;;;;;;;;5088628;28;20047;-74
2023/03/28 10:49:21;;;;;;;0.20;0.20;;;;;;;;;;5077133;28;20028;-73
2023/03/28 10:51:56;;;;;;;0.52;0.52;;;;;;;;;;5071252;28;20059;-73
2023/03/28 10:54:35;;;;;;;0.20;0.20;;;;;;;;;;5071560;28;20231;-72
2023/03/28 10:57:06;;;;;;;0.20;0.20;;;;;;;;;;5071553;28;20043;-73
2023/03/28 10:59:35;;;;;;;0.20;0.20;;;;;;;;;;5071781;28;20890;-73
2023/03/28 11:02:06;;;;;;;0.20;0.20;;;;;;;;;;5081924;28;20092;-74
2023/03/28 11:04:39;;;;;;;0.20;0.20;;;;;;;;;;5078353;28;20028;-73
2023/03/28 11:07:08;;;;;;;0.20;0.20;;;;;;;;;;5069954;28;20369;-74
2023/03/28 11:09:55;;;;;;;0.20;0.20;;;;;;;;;;5070984;28;20036;-73
2023/03/28 11:12:46;;;;;;;0.20;0.20;;;;;;;;;;5088742;28;20066;-73
2023/03/28 11:15:26;;;;;;;0.20;0.20;;;;;;;;;;5070406;28;20036;-73
2023/03/28 11:18:21;;;;;;;0.20;0.20;;;;;;;;;;5070860;28;20113;-73
2023/03/28 11:20:49;;;;;;;0.20;0.20;;;;;;;;;;5060508;28;20044;-73
2023/03/28 11:23:22;;;;;;;0.30;0.30;;;;;;;;;;5089054;28;20043;-73
2023/03/28 11:26:32;;;;;;;0.20;0.20;;;;;;;;;;5026391;28;20444;-73
2023/03/28 11:29:32;;;;;;;0.20;0.20;;;;;;;;;;5026620;28;20052;-73
2023/03/28 11:32:31;;;;;;;0.20;0.20;;;;;;;;;;5040022;28;20036;-73
2023/03/28 11:35:04;;;;;;;0.20;0.20;;;;;;;;;;5024639;28;20496;-73
2023/03/28 11:37:30;;;;;;;0.30;0.30;;;;;;;;;;5050411;28;20507;-72
2023/03/28 11:40:08;;;;;;;0.88;0.75;;;;;;;;;;5054462;28;20032;-73
2023/03/28 11:43:05;;;;;;;0.20;0.20;;;;;;;;;;5068291;28;20106;-73
2023/03/28 11:45:38;;;;;;;0.50;0.50;;;;;;;;;;5070184;28;20116;-73
2023/03/28 11:48:25;;;;;;;0.20;0.20;;;;;;;;;;5070679;28;20028;-73
2023/03/28 11:51:12;;;;;;;0.20;0.20;;;;;;;;;;5056716;28;20040;-73
2023/03/28 11:53:49;;;;;;;0.20;0.20;;;;;;;;;;5069040;28;20127;-74
2023/03/28 11:56:18;;;;;;;0.20;0.20;;;;;;;;;;5051280;28;20038;-74
2023/03/28 11:59:19;;;;;;;0.10;0.10;;;;;;;;;;5062011;28;20491;-74
2023/03/28 12:01:48;;;;;;;0.50;0.45;;;;;;;;;;5039341;28;20039;-74
2023/03/28 12:04:17;;;;;;;0.30;0.30;;;;;;;;;;5068024;28;20039;-74
2023/03/28 12:06:51;;;;;;;0.20;0.20;;;;;;;;;;5086262;28;20044;-73
2023/03/28 12:09:23;;;;;;;0.20;0.20;;;;;;;;;;5067374;28;20085;-73
2023/03/28 12:12:05;;;;;;;0.20;0.20;;;;;;;;;;5067665;28;20036;-73
2023/03/28 12:14:30;;;;;;;0.20;0.20;;;;;;;;;;5083529;28;20028;-74
2023/03/28 12:17:13;;;;;;;0.22;0.22;;;;;;;;;;5064963;28;20119;-73
2023/03/28 12:19:40;;;;;;;0.20;0.20;;;;;;;;;;5083893;28;20060;-74
2023/03/28 12:22:29;;;;;;;0.20;0.20;;;;;;;;;;5061819;28;20036;-73
2023/03/28 12:25:02;;;;;;;0.20;0.20;;;;;;;;;;5069062;28;20422;-74
2023/03/28 12:27:37;;;;;;;0.10;0.10;;;;;;;;;;5067569;28;20394;-74
2023/03/28 12:30:15;;;;;;;0.20;0.20;;;;;;;;;;5074310;28;20032;-74
2023/03/28 12:32:47;;;;;;;0.20;0.20;;;;;;;;;;5062881;28;20541;-74
2023/03/28 12:35:36;;;;;;;0.20;0.20;;;;;;;;;;5067738;28;20091;-73
2023/03/28 12:38:15;;;;;;;0.20;0.20;;;;;;;;;;5067950;28;20036;-73
2023/03/28 12:40:45;;;;;;;0.20;0.20;;;;;;;;;;5051167;28;20044;-74
2023/03/28 12:43:13;;;;;;;0.20;0.20;;;;;;;;;;5085565;28;20123;-74
2023/03/28 12:45:44;;;;;;;0.20;0.20;;;;;;;;;;5048417;28;20036;-74
2023/03/28 12:48:23;;;;;;;1.38;0.50;;;;;;;;;;5046273;28;20028;-73
2023/03/28 12:50:57;;;;;;;0.20;0.20;;;;;;;;;;5066191;28;20036;-74
2023/03/28 12:53:23;;;;;;;0.20;0.20;;;;;;;;;;5040399;28;20432;-74
2023/03/28 12:55:50;;;;;;;0.20;0.20;;;;;;;;;;5066607;28;20839;-74
2023/03/28 12:58:20;;;;;;;0.30;0.30;;;;;;;;;;5050213;28;20031;-74
2023/03/28 13:01:04;;;;;;;0.43;0.38;;;;;;;;;;5051411;28;20040;-74
2023/03/28 13:03:41;;;;;;;3.95;0.77;;;;;;;;;;5068604;28;20040;-74
2023/03/28 13:06:10;;;;;;;0.30;0.30;;;;;;;;;;5050450;28;20135;-74
2023/03/28 13:08:45;;;;;;;0.20;0.20;;;;;;;;;;5066916;28;20431;-74
2023/03/28 13:11:35;;;;;;;0.20;0.20;;;;;;;;;;5032646;28;20484;-75
2023/03/28 13:14:20;;;;;;;0.20;0.20;;;;;;;;;;5033451;28;20033;-76
2023/03/28 13:16:47;;;;;;;0.20;0.20;;;;;;;;;;5087759;28;20035;-74
2023/03/28 13:19:13;;;;;;;0.22;0.22;;;;;;;;;;5086863;28;20042;-74
2023/03/28 13:21:40;;;;;;;0.20;0.20;;;;;;;;;;5087334;28;20483;-75
2023/03/28 13:24:25;;;;;;;0.20;0.20;;;;;;;;;;5089155;28;20036;-75
2023/03/28 13:27:20;;;;;;;0.20;0.20;;;;;;;;;;5088844;28;20036;-75
2023/03/28 13:29:47;;;;;;;0.30;0.30;;;;;;;;;;5065996;28;20185;-74
2023/03/28 13:32:23;;;;;;;0.20;0.20;;;;;;;;;;5068336;28;20025;-75
2023/03/28 13:34:51;;;;;;;0.20;0.20;;;;;;;;;;5068534;28;20448;-74
2023/03/28 13:37:36;;;;;;;0.82;0.80;;;;;;;;;;5068311;28;20039;-76
2023/03/28 13:40:25;;;;;;;0.20;0.20;;;;;;;;;;5059187;28;20047;-75
2023/03/28 13:42:57;;;;;;;0.20;0.20;;;;;;;;;;5088919;28;20122;-75
2023/03/28 13:45:24;;;;;;;0.20;0.20;;;;;;;;;;5078520;28;20499;-75
2023/03/28 13:47:50;;;;;;;0.35;0.30;;;;;;;;;;5087690;28;20052;-75
2023/03/28 13:50:18;;;;;;;0.20;0.20;;;;;;;;;;5081552;28;20062;-74
2023/03/28 13:52:44;;;;;;;0.20;0.20;;;;;;;;;;5088534;28;20035;-75
2023/03/28 13:55:23;;;;;;;0.20;0.20;;;;;;;;;;5088560;28;20032;-74
2023/03/28 13:57:49;;;;;;;0.40;0.40;;;;;;;;;;5088539;28;20051;-73
2023/03/28 14:00:16;;;;;;;0.20;0.20;;;;;;;;;;5088653;28;20028;-74
2023/03/28 14:02:44;;;;;;;0.20;0.20;;;;;;;;;;5088662;28;20130;-74
2023/03/28 14:05:26;;;;;;;0.22;0.22;;;;;;;;;;5066008;28;20395;-75
2023/03/28 14:07:53;;;;;;;0.20;0.20;;;;;;;;;;5090672;28;20028;-74
2023/03/28 14:10:39;;;;;;;0.20;0.20;;;;;;;;;;5090734;28;20127;-73
2023/03/28 14:13:05;;;;;;;0.20;0.20;;;;;;;;;;5072129;28;20122;-74
2023/03/28 14:15:33;;;;;;;0.10;0.10;;;;;;;;;;5090255;28;20473;-74
2023/03/28 14:18:00;;;;;;;0.20;0.20;;;;;;;;;;5090535;28;20067;-74
2023/03/28 14:20:27;;;;;;;1.27;0.45;;;;;;;;;;5090571;28;20036;-74
2023/03/28 14:22:52;;;;;;;0.20;0.20;;;;;;;;;;5067266;28;20036;-73
2023/03/28 14:25:20;;;;;;;0.20;0.20;;;;;;;;;;5088192;28;20044;-74
2023/03/28 14:27:47;;;;;;;0.20;0.20;;;;;;;;;;5088785;28;20081;-74
2023/03/28 14:30:22;;;;;;;0.20;0.20;;;;;;;;;;5089299;28;20579;-75
2023/03/28 14:32:58;;;;;;;0.20;0.20;;;;;;;;;;5088859;28;20036;-74
2023/03/28 14:35:25;;;;;;;0.98;0.93;;;;;;;;;;5089339;28;20051;-74
2023/03/28 14:37:54;;;;;;;0.20;0.20;;;;;;;;;;5089287;28;20366;-74
2023/03/28 14:40:23;;;;;;;0.20;0.20;;;;;;;;;;5089980;28;20080;-74
2023/03/28 14:42:51;;;;;;;0.20;0.20;;;;;;;;;;5090313;28;20093;-74
2023/03/28 14:45:16;;;;;;;0.77;0.73;;;;;;;;;;5071516;28;20070;-75
2023/03/28 14:47:42;;;;;;;0.20;0.20;;;;;;;;;;5072269;28;20491;-74
2023/03/28 14:50:12;;;;;;;0.20;0.20;;;;;;;;;;5089714;28;20036;-74
2023/03/28 14:52:39;;;;;;;0.10;0.10;;;;;;;;;;5071637;28;20040;-74
2023/03/28 14:55:13;;;;;;;0.20;0.20;;;;;;;;;;5087214;28;20533;-75
2023/03/28 14:57:38;;;;;;;0.20;0.20;;;;;;;;;;5066511;28;20047;-75
2023/03/28 15:00:13;;;;;;;0.15;0.15;;;;;;;;;;5075583;28;20107;-75
2023/03/28 15:02:40;;;;;;;0.30;0.30;;;;;;;;;;5053817;28;20039;-75
2023/03/28 15:05:07;;;;;;;0.30;0.30;;;;;;;;;;5055383;28;20036;-75
2023/03/28 15:07:34;;;;;;;0.20;0.20;;;;;;;;;;5065217;28;20028;-74
2023/03/28 15:10:05;;;;;;;0.20;0.20;;;;;;;;;;5089489;28;20028;-75
2023/03/28 15:12:32;;;;;;;0.20;0.20;;;;;;;;;;5087362;28;20032;-75
2023/03/28 15:14:58;;;;;;;0.22;0.22;;;;;;;;;;5081360;28;20084;-75
2023/03/28 15:17:25;;;;;;;0.20;0.20;;;;;;;;;;5083783;28;20127;-74
2023/03/28 15:19:54;;;;;;;0.20;0.20;;;;;;;;;;5089488;28;20023;-74
2023/03/28 15:22:20;;;;;;;;;;;;;;;;;;5071858;28;20502;-74
2023/03/28 15:24:45;;;;;;;0.30;0.30;;;;;;;;;;5089083;28;19912;-74
2023/03/28 15:27:16;;;;;;;0.50;0.30;;;;;;;;;;5089724;28;20472;-74
2023/03/28 15:29:41;;;;;;;2.20;1.05;;;;;;;;;;5089388;28;20119;-74
2023/03/28 15:32:13;;;;;;;0.20;0.20;;;;;;;;;;5089551;28;20181;-74
2023/03/28 15:35:05;;;;;;;0.40;0.40;;;;;;;;;;5089133;28;20047;-75
2023/03/28 15:37:41;;;;;;;0.20;0.20;;;;;;;;;;5084383;28;20036;-74
2023/03/28 15:40:11;;;;;;;0.20;0.20;;;;;;;;;;5089122;28;20028;-74
2023/03/28 15:42:36;;;;;;;;;;;;;;;;;;5071911;28;20024;-75
2023/03/28 15:45:09;;;;;;;0.30;0.30;;;;;;;;;;5070528;28;19916;-75
2023/03/28 15:47:35;;;;;;;0.20;0.20;;;;;;;;;;5054289;28;20514;-75
2023/03/28 15:50:05;;;;;;;0.20;0.20;;;;;;;;;;5071281;28;20438;-75
2023/03/28 15:52:32;;;;;;;0.20;0.20;;;;;;;;;;5088930;28;20028;-74
2023/03/28 15:54:59;;;;;;;0.20;0.20;;;;;;;;;;5088845;28;20479;-74
2023/03/28 15:57:26;;;;;;;1.27;1.17;;;;;;;;;;5089087;28;20036;-75
2023/03/28 15:59:53;;;;;;;0.20;0.20;;;;;;;;;;5088771;28;20024;-74
2023/03/28 16:02:27;;;;;;;0.22;0.22;;;;;;;;;;5088449;28;20059;-74
2023/03/28 16:04:55;;;;;;;0.20;0.20;;;;;;;;;;5070712;28;20024;-74
2023/03/28 16:07:21;;;;;;;0.20;0.20;;;;;;;;;;5053780;28;20032;-74
2023/03/28 16:09:49;;;;;;;0.20;0.20;;;;;;;;;;5088567;28;20497;-74
2023/03/28 16:12:15;;;;;;;0.20;0.20;;;;;;;;;;5088963;28;20044;-75
2023/03/28 16:14:43;;;;;;;0.20;0.20;;;;;;;;;;5070407;28;20387;-75
2023/03/28 16:17:31;;;;;;;0.20;0.20;;;;;;;;;;5065663;28;20385;-74
2023/03/28 16:20:13;;;;;;;0.25;0.25;;;;;;;;;;5069436;28;20024;-74
2023/03/28 16:22:39;;;;;;;0.20;0.20;;;;;;;;;;5070242;28;20044;-74
2023/03/28 16:25:05;;;;;;;0.30;0.30;;;;;;;;;;5088077;28;20051;-74
2023/03/28 16:27:30;;;;;;;0.20;0.20;;;;;;;;;;5088727;28;20031;-75
2023/03/28 16:29:56;;;;;;;0.20;0.20;;;;;;;;;;5069641;28;20476;-74
2023/03/28 16:32:22;;;;;;;0.20;0.20;;;;;;;;;;5088608;28;20031;-75
2023/03/28 16:34:49;;;;;;;0.20;0.20;;;;;;;;;;5070525;28;20040;-74
2023/03/28 16:37:15;;;;;;;0.20;0.20;;;;;;;;;;5053496;28;20027;-74
2023/03/28 16:39:40;;;;;;;0.30;0.30;;;;;;;;;;5088281;28;20539;-75
2023/03/28 16:42:06;;;;;;;0.20;0.20;;;;;;;;;;5086174;28;20107;-74
2023/03/28 16:44:32;;;;;;;0.20;0.20;;;;;;;;;;5053644;28;20031;-75
2023/03/28 16:46:57;;;;;;;0.15;0.15;;;;;;;;;;5070468;28;20043;-74
2023/03/28 16:49:23;;;;;;;0.20;0.20;;;;;;;;;;5070013;28;20070;-74
2023/03/28 16:51:49;;;;;;;0.20;0.20;;;;;;;;;;5070536;28;20032;-74
2023/03/28 16:54:16;;;;;;;0.20;0.20;;;;;;;;;;5088275;28;20036;-73
2023/03/28 16:56:42;;;;;;;0.20;0.20;;;;;;;;;;5088518;28;20047;-74
2023/03/28 16:59:07;;;;;;;0.20;0.20;;;;;;;;;;5070145;28;20024;-73
2023/03/28 17:01:33;;;;;;;0.17;0.17;;;;;;;;;;5068555;28;20487;-74
2023/03/28 17:03:58;;;;;;;0.10;0.10;;;;;;;;;;5069162;28;20388;-74
2023/03/28 17:06:26;;;;;;;0.20;0.20;;;;;;;;;;5088147;28;20086;-73
2023/03/28 17:08:53;;;;;;;0.20;0.20;;;;;;;;;;5070125;28;20540;-74
2023/03/28 17:11:19;;;;;;;0.25;0.25;;;;;;;;;;5086363;28;20077;-74
2023/03/28 17:13:46;;;;;;;0.20;0.20;;;;;;;;;;5067272;28;20107;-75
2023/03/28 17:16:12;;;;;;;0.20;0.20;;;;;;;;;;5087643;28;20390;-74
2023/03/28 17:18:37;;;;;;;0.60;0.60;;;;;;;;;;5069699;28;20036;-74
2023/03/28 17:21:07;;;;;;;0.13;0.13;;;;;;;;;;5068389;28;20044;-74
2023/03/28 17:23:34;;;;;;;0.20;0.20;;;;;;;;;;5064992;28;20040;-74
2023/03/28 17:26:00;;;;;;;0.30;0.30;;;;;;;;;;5073526;28;20476;-74
2023/03/28 17:28:26;;;;;;;0.20;0.20;;;;;;;;;;5081859;28;20026;-74
2023/03/28 17:30:51;;;;;;;0.20;0.20;;;;;;;;;;5058720;28;20060;-74
2023/03/28 17:33:17;;;;;;;0.30;0.30;;;;;;;;;;5065041;28;20054;-73
2023/03/28 17:35:43;;;;;;;0.20;0.20;;;;;;;;;;5079729;28;20048;-74
2023/03/28 17:38:08;;;;;;;0.10;0.10;;;;;;;;;;5088483;28;20024;-74
2023/03/28 17:40:35;;;;;;;0.17;0.17;;;;;;;;;;5080654;28;20089;-74
2023/03/28 17:43:00;;;;;;;0.20;0.20;;;;;;;;;;5068933;28;20085;-73
2023/03/28 17:45:26;;;;;;;0.20;0.20;;;;;;;;;;5073028;28;20040;-74
2023/03/28 17:47:54;;;;;;;0.10;0.10;;;;;;;;;;5082991;28;20118;-73
2023/03/28 17:50:20;;;;;;;0.10;0.10;;;;;;;;;;5065012;28;20383;-75
2023/03/28 17:52:45;;;;;;;0.10;0.10;;;;;;;;;;5041002;28;20025;-75
2023/03/28 17:55:11;;;;;;;0.10;0.10;;;;;;;;;;5086320;28;20496;-74
2023/03/28 17:57:37;;;;;;;0.20;0.20;;;;;;;;;;5064984;28;20029;-74
2023/03/28 18:00:03;;;;;;;0.30;0.30;;;;;;;;;;5058436;28;20280;-74
2023/03/28 18:02:40;;;;;;;0.20;0.20;;;;;;;;;;5070116;28;20040;-73
2023/03/28 18:05:15;;;;;;;0.10;0.10;;;;;;;;;;5067525;28;20751;-76
2023/03/28 18:07:42;;;;;;;0.10;0.10;;;;;;;;;;5053134;28;20032;-75
2023/03/28 18:10:10;;;;;;;0.85;0.85;;;;;;;;;;5072400;28;20491;-74
2023/03/28 18:12:36;;;;;;;0.10;0.10;;;;;;;;;;5071046;28;20080;-74
2023/03/28 18:15:02;;;;;;;0.10;0.10;;;;;;;;;;5090450;28;20085;-74
2023/03/28 18:17:27;;;;;;;0.10;0.10;;;;;;;;;;5090369;28;20032;-74
2023/03/28 18:19:52;;;;;;;0.10;0.10;;;;;;;;;;5088511;28;20043;-74
2023/03/28 18:22:18;;;;;;;1.80;1.70;;;;;;;;;;5072291;28;20028;-74
2023/03/28 18:24:43;;;;;;;0.75;0.55;;;;;;;;;;5090295;28;20488;-74
2023/03/28 18:27:09;;;;;;;0.98;0.70;;;;;;;;;;5090708;28;20025;-74
2023/03/28 18:29:35;;;;;;;0.77;0.77;;;;;;;;;;5090040;28;20035;-75
2023/03/28 18:32:00;;;;;;;0.63;0.63;;;;;;;;;;5090449;28;20373;-73
2023/03/28 18:34:25;;;;;;;0.10;0.10;;;;;;;;;;5055778;28;20145;-73
2023/03/28 18:36:54;;;;;;;0.10;0.10;;;;;;;;;;5090256;28;20502;-75
2023/03/28 18:39:21;;;;;;;0.10;0.10;;;;;;;;;;5089724;28;20036;-74
2023/03/28 18:41:48;;;;;;;0.10;0.10;;;;;;;;;;5055642;28;20114;-74
2023/03/28 18:44:13;;;;;;;0.10;0.10;;;;;;;;;;5053863;28;20070;-75
2023/03/28 18:46:39;;;;;;;0.10;0.10;;;;;;;;;;5071265;28;20032;-74
2023/03/28 18:49:05;;;;;;;0.10;0.10;;;;;;;;;;5072159;28;20032;-74
2023/03/28 18:51:31;;;;;;;0.10;0.10;;;;;;;;;;5089772;28;20070;-74
2023/03/28 18:53:56;;;;;;;0.10;0.10;;;;;;;;;;5071896;28;20059;-74
2023/03/28 18:56:22;;;;;;;0.10;0.10;;;;;;;;;;5089994;28;20475;-74
2023/03/28 18:58:49;;;;;;;0.25;0.25;;;;;;;;;;5069501;28;20059;-74
2023/03/28 19:01:14;;;;;;;0.30;0.30;;;;;;;;;;5081355;28;20029;-74
2023/03/28 19:03:41;;;;;;;0.25;0.25;;;;;;;;;;5069507;28;20039;-74
2023/03/28 19:06:11;;;;;;;0.10;0.10;;;;;;;;;;5051494;28;20051;-74
2023/03/28 19:08:36;;;;;;;;;;;;;;;;;;5070184;28;20029;-74
2023/03/28 19:11:12;;;;;;;0.10;0.10;;;;;;;;;;5051626;28;20257;-74
2023/03/28 19:13:38;;;;;;;0.10;0.10;;;;;;;;;;5070573;28;20472;-75
2023/03/28 19:16:05;;;;;;;0.15;0.15;;;;;;;;;;5089068;28;20058;-74
2023/03/28 19:18:32;;;;;;;0.20;0.20;;;;;;;;;;5070984;28;20044;-73
2023/03/28 19:20:57;;;;;;;0.10;0.10;;;;;;;;;;5071504;28;20032;-74
2023/03/28 19:23:24;;;;;;;0.10;0.10;;;;;;;;;;5071106;28;20510;-74
2023/03/28 19:25:50;;;;;;;0.10;0.10;;;;;;;;;;5071199;28;20043;-73
2023/03/28 19:28:16;;;;;;;0.20;0.20;;;;;;;;;;5089439;28;20032;-73
2023/03/28 19:30:41;;;;;;;0.10;0.10;;;;;;;;;;5070836;28;20028;-74
2023/03/28 19:33:07;;;;;;;0.10;0.10;;;;;;;;;;5089411;28;20082;-74
2023/03/28 19:35:32;;;;;;;0.10;0.10;;;;;;;;;;5088938;28;20035;-73
2023/03/28 19:38:00;;;;;;;0.30;0.30;;;;;;;;;;5089815;28;20040;-73
2023/03/28 19:40:26;;;;;;;0.10;0.10;;;;;;;;;;5071363;28;20459;-74
2023/03/28 19:42:52;;;;;;;0.20;0.20;;;;;;;;;;5054144;28;20039;-74
2023/03/28 19:45:17;;;;;;;0.13;0.13;;;;;;;;;;5070937;28;20035;-74
2023/03/28 19:47:42;;;;;;;0.70;0.70;;;;;;;;;;5054146;28;20407;-74
2023/03/28 19:50:10;;;;;;;0.10;0.10;;;;;;;;;;5085537;28;20426;-74
2023/03/28 19:52:38;;;;;;;0.10;0.10;;;;;;;;;;5079900;28;20040;-74
2023/03/28 19:55:04;;;;;;;0.10;0.10;;;;;;;;;;5050687;28;20072;-75
2023/03/28 19:57:30;;;;;;;0.05;0.05;;;;;;;;;;5051555;28;20024;-74
2023/03/28 19:59:55;;;;;;;0.10;0.10;;;;;;;;;;5086013;28;20046;-74
2023/03/28 20:02:21;;;;;;;0.10;0.10;;;;;;;;;;5084366;28;20047;-74
2023/03/28 20:04:46;;;;;;;0.10;0.10;;;;;;;;;;5066826;28;20494;-75
2023/03/28 20:07:12;;;;;;;0.10;0.10;;;;;;;;;;5082656;28;20190;-73
2023/03/28 20:09:40;;;;;;;0.10;0.10;;;;;;;;;;5076716;28;20039;-75
2023/03/28 20:12:05;;;;;;;0.10;0.10;;;;;;;;;;5065101;28;20131;-75
2023/03/28 20:14:31;;;;;;;0.15;0.15;;;;;;;;;;5086816;28;20123;-72
2023/03/28 20:16:56;;;;;;;0.10;0.10;;;;;;;;;;5086606;28;20433;-72
2023/03/28 20:19:22;;;;;;;2.08;1.75;;;;;;;;;;5068556;28;20114;-71
2023/03/28 20:21:47;;;;;;;0.22;0.22;;;;;;;;;;5067903;28;20040;-72
2023/03/28 20:24:13;;;;;;;10.18;9.32;;;;;;;;;;5086590;28;20117;-71
2023/03/28 20:26:39;;;;;;;0.30;0.30;;;;;;;;;;5086251;28;20074;-72
2023/03/28 20:29:04;;;;;;;0.10;0.10;;;;;;;;;;5051519;28;20074;-71
2023/03/28 20:31:30;;;;;;;0.80;0.45;;;;;;;;;;5086190;28;20040;-72
2023/03/28 20:33:55;;;;;;;0.20;0.20;;;;;;;;;;5067807;28;20537;-71
2023/03/28 20:36:21;;;;;;;1.15;1.13;;;;;;;;;;5068406;28;20040;-72
2023/03/28 20:38:47;;;;;;;0.57;0.57;;;;;;;;;;5067340;28;20028;-72
2023/03/28 20:41:14;;;;;;;0.10;0.10;;;;;;;;;;5084495;28;20039;-73
2023/03/28 20:43:45;;;;;;;0.10;0.10;;;;;;;;;;5064130;28;20044;-71
2023/03/28 20:46:11;;;;;;;0.47;0.47;;;;;;;;;;5083990;28;20039;-72
2023/03/28 20:48:38;;;;;;;0.10;0.10;;;;;;;;;;5086482;28;20043;-74
2023/03/28 20:51:05;;;;;;;0.15;0.15;;;;;;;;;;5067253;28;20507;-74
2023/03/28 20:53:31;;;;;;;0.17;0.17;;;;;;;;;;5085350;28;20111;-73
2023/03/28 20:56:03;;;;;;;0.10;0.10;;;;;;;;;;5085855;28;20041;-73
2023/03/28 20:58:30;;;;;;;0.13;0.13;;;;;;;;;;5064951;28;20036;-72
2023/03/28 21:00:56;;;;;;;0.10;0.10;;;;;;;;;;5081892;28;20491;-70
2023/03/28 21:03:22;;;;;;;0.10;0.10;;;;;;;;;;5064729;28;20084;-75
2023/03/28 21:05:49;;;;;;;0.10;0.10;;;;;;;;;;5076632;28;20343;-76
2023/03/28 21:08:18;;;;;;;0.10;0.10;;;;;;;;;;5060019;28;20135;-76
2023/03/28 21:10:49;;;;;;;0.20;0.20;;;;;;;;;;5068861;28;20032;-76
2023/03/28 21:13:15;;;;;;;0.10;0.10;;;;;;;;;;5053960;28;20119;-77
2023/03/28 21:15:41;;;;;;;0.10;0.10;;;;;;;;;;5071613;28;20032;-75
2023/03/28 21:18:08;;;;;;;0.38;0.38;;;;;;;;;;5089329;28;20032;-78
2023/03/28 21:20:33;;;;;;;1.95;1.08;;;;;;;;;;5089862;28;20608;-76
2023/03/28 21:22:59;;;;;;;0.10;0.10;;;;;;;;;;5089071;28;20036;-77
2023/03/28 21:25:24;;;;;;;0.10;0.10;;;;;;;;;;5089012;28;20048;-76
2023/03/28 21:27:50;;;;;;;0.10;0.10;;;;;;;;;;5070879;28;20040;-77
2023/03/28 21:30:15;;;;;;;0.10;0.10;;;;;;;;;;5089281;28;20065;-76
2023/03/28 21:32:41;;;;;;;0.10;0.10;;;;;;;;;;5089111;28;20024;-77
2023/03/28 21:35:06;;;;;;;0.45;0.45;;;;;;;;;;5082233;28;20040;-76
2023/03/28 21:37:32;;;;;;;0.10;0.10;;;;;;;;;;5053658;28;20082;-77
2023/03/28 21:39:57;;;;;;;0.10;0.10;;;;;;;;;;5051026;28;20048;-77
2023/03/28 21:42:23;;;;;;;0.10;0.10;;;;;;;;;;5069042;28;20040;-76
2023/03/28 21:44:49;;;;;;;0.10;0.10;;;;;;;;;;5080903;28;20044;-76
2023/03/28 21:47:15;;;;;;;0.15;0.15;;;;;;;;;;5080948;28;20032;-76
2023/03/28 21:49:42;;;;;;;5.82;1.65;;;;;;;;;;5088737;28;20513;-77
2023/03/28 21:52:07;;;;;;;0.10;0.10;;;;;;;;;;5089607;28;20043;-75
2023/03/28 21:54:33;;;;;;;0.10;0.10;;;;;;;;;;5088870;28;20219;-76
2023/03/28 21:56:58;;;;;;;0.20;0.20;;;;;;;;;;5070691;28;20044;-76
2023/03/28 21:59:25;;;;;;;1.30;1.15;;;;;;;;;;5087914;28;20028;-75
2023/03/28 22:01:50;;;;;;;0.20;0.20;;;;;;;;;;5070722;28;20036;-75
2023/03/28 22:04:15;;;;;;;0.20;0.20;;;;;;;;;;5088821;28;20032;-75
2023/03/28 22:06:41;;;;;;;0.20;0.20;;;;;;;;;;5050323;28;20431;-74
2023/03/28 22:09:06;;;;;;;0.28;0.28;;;;;;;;;;5078527;28;20032;-75
2023/03/28 22:11:33;;;;;;;0.10;0.10;;;;;;;;;;5077639;28;20092;-75
2023/03/28 22:14:03;;;;;;;0.65;0.65;;;;;;;;;;5074160;28;20369;-76